Time;durP1;ratioP1;P1;durP2;ratioP2;P2;SDS_P1;SDS_P2;PMS_P1;PMS_P2;Temp;Humidity;BMP_temperature;BMP_pressure;BME280_temperature;BME280_humidity;BME280_pressure;Samples;Min_cycle;Max_cycle;Signal;HPM_P1;HPM_P2
2024/03/20 00:02:27;;;;;;;13.47;10.80;;;8.10;99.90;;;;;;5071220;28;20447;-82
2024/03/20 00:05:14;;;;;;;16.80;11.17;;;8.10;99.90;;;;;;5073626;28;20531;-81
2024/03/20 00:07:59;;;;;;;17.87;12.23;;;8.10;99.90;;;;;;5073091;28;20508;-82
2024/03/20 00:10:46;;;;;;;13.77;10.80;;;8.10;99.90;;;;;;5072574;28;20441;-81
2024/03/20 00:13:32;;;;;;;16.20;10.53;;;8.10;99.90;;;;;;5072747;28;20896;-83
2024/03/20 00:16:18;;;;;;;14.40;10.40;;;8.10;99.90;;;;;;5069682;28;20982;-81
2024/03/20 00:19:05;;;;;;;12.30;9.50;;;8.00;99.90;;;;;;5068062;28;20567;-81
2024/03/20 00:21:51;;;;;;;15.03;10.00;;;8.00;99.90;;;;;;5069161;28;20958;-82
2024/03/20 00:24:37;;;;;;;11.00;9.23;;;8.00;99.90;;;;;;5070291;28;20448;-84
2024/03/20 00:27:23;;;;;;;10.67;9.10;;;8.00;99.90;;;;;;5069883;28;20586;-83
2024/03/20 00:30:09;;;;;;;17.40;10.40;;;8.00;99.90;;;;;;5067396;28;20461;-82
2024/03/20 00:32:55;;;;;;;12.43;9.63;;;8.00;99.90;;;;;;5068819;28;20436;-82
2024/03/20 00:35:42;;;;;;;16.57;9.63;;;8.10;99.90;;;;;;5067538;28;20546;-84
2024/03/20 00:38:27;;;;;;;13.90;10.90;;;8.10;99.90;;;;;;5068610;28;20519;-81
2024/03/20 00:41:13;;;;;;;13.73;11.00;;;8.00;99.90;;;;;;5068308;28;20481;-83
2024/03/20 00:43:59;;;;;;;13.57;9.70;;;7.90;99.90;;;;;;5068245;28;20448;-82
2024/03/20 00:46:44;;;;;;;10.37;7.90;;;7.90;99.90;;;;;;5070558;28;20457;-82
2024/03/20 00:49:30;;;;;;;10.83;9.73;;;7.90;99.90;;;;;;5064904;28;20461;-81
2024/03/20 00:52:17;;;;;;;12.20;9.33;;;7.90;99.90;;;;;;5067931;28;20511;-81
2024/03/20 00:55:03;;;;;;;14.97;9.83;;;7.80;99.90;;;;;;5068945;28;20471;-83
2024/03/20 00:57:49;;;;;;;14.13;10.03;;;7.80;99.90;;;;;;5065090;28;20459;-84
2024/03/20 01:00:35;;;;;;;15.90;8.77;;;7.70;99.90;;;;;;5070647;28;20535;-82
2024/03/20 01:03:20;;;;;;;10.47;9.23;;;7.70;99.90;;;;;;5069465;28;20450;-82
2024/03/20 01:06:06;;;;;;;12.30;9.07;;;7.70;99.90;;;;;;5069038;28;20475;-83
2024/03/20 01:08:53;;;;;;;14.33;9.03;;;7.70;99.90;;;;;;5072478;28;20989;-83
2024/03/20 01:11:39;;;;;;;11.40;8.83;;;7.60;99.90;;;;;;5068425;28;20454;-81
2024/03/20 01:14:25;;;;;;;14.07;8.33;;;7.60;99.90;;;;;;5069432;28;20471;-81
2024/03/20 01:17:15;;;;;;;9.90;8.80;;;7.70;99.90;;;;;;5071050;28;20444;-82
2024/03/20 01:20:01;;;;;;;12.73;9.47;;;7.60;99.90;;;;;;5067476;28;20469;-82
2024/03/20 01:22:47;;;;;;;20.93;12.30;;;7.50;99.90;;;;;;5071464;28;21238;-81
2024/03/20 01:25:34;;;;;;;10.80;9.63;;;7.50;99.90;;;;;;5063977;28;20477;-83
2024/03/20 01:28:19;;;;;;;13.70;8.80;;;7.50;99.90;;;;;;5072260;28;20444;-83
2024/03/20 01:31:05;;;;;;;10.87;8.37;;;7.40;99.90;;;;;;5076728;28;20437;-82
2024/03/20 01:33:51;;;;;;;11.60;8.87;;;7.50;99.90;;;;;;5071873;28;20451;-81
2024/03/20 01:36:36;;;;;;;11.00;8.57;;;7.50;99.90;;;;;;5072629;28;20530;-81
2024/03/20 01:39:22;;;;;;;9.93;8.30;;;7.60;99.90;;;;;;5073032;28;20441;-81
2024/03/20 01:42:09;;;;;;;11.73;8.17;;;7.60;99.90;;;;;;5073944;28;20764;-83
2024/03/20 01:45:11;;;;;;;12.10;9.00;;;7.50;99.90;;;;;;5074207;28;20549;-82
2024/03/20 01:47:57;;;;;;;12.97;10.50;;;7.50;99.90;;;;;;5071948;28;20467;-82
2024/03/20 01:50:44;;;;;;;14.20;9.43;;;7.40;99.90;;;;;;5083345;28;20478;-81
2024/03/20 01:53:30;;;;;;;9.90;8.20;;;7.40;99.90;;;;;;5085759;28;20446;-82
2024/03/20 01:56:16;;;;;;;13.30;8.27;;;7.40;99.90;;;;;;5077015;28;20445;-81
2024/03/20 01:59:03;;;;;;;14.50;9.83;;;7.40;99.90;;;;;;5077234;28;20453;-82
2024/03/20 02:01:49;;;;;;;12.53;9.63;;;7.40;99.90;;;;;;5076605;28;20484;-84
2024/03/20 02:04:35;;;;;;;12.03;8.50;;;7.40;99.90;;;;;;5071631;28;20817;-84
2024/03/20 02:07:21;;;;;;;13.00;9.10;;;7.40;99.90;;;;;;5072935;28;20505;-83
2024/03/20 02:10:07;;;;;;;10.63;9.00;;;7.50;99.90;;;;;;5074094;28;20451;-83
2024/03/20 02:13:03;;;;;;;11.43;9.00;;;7.50;99.90;;;;;;5072050;28;20599;-84
2024/03/20 02:15:50;;;;;;;12.90;7.90;;;7.40;99.90;;;;;;5074326;28;20997;-83
2024/03/20 02:18:36;;;;;;;11.10;6.90;;;7.30;99.90;;;;;;5068757;28;20501;-82
2024/03/20 02:21:24;;;;;;;9.90;7.55;;;7.30;99.90;;;;;;5070080;28;20449;-84
2024/03/20 02:24:09;;;;;;;10.30;7.57;;;7.30;99.90;;;;;;5067350;28;20242;-84
2024/03/20 02:26:56;;;;;;;9.40;7.67;;;7.20;99.90;;;;;;5071389;28;20483;-83
2024/03/20 02:29:41;;;;;;;10.10;8.00;;;7.20;99.90;;;;;;5074758;28;20457;-84
2024/03/20 02:32:27;;;;;;;13.23;7.50;;;7.20;99.90;;;;;;5074791;28;20435;-81
2024/03/20 02:35:13;;;;;;;12.33;8.53;;;7.10;99.90;;;;;;5072381;28;20464;-84
2024/03/20 02:38:00;;;;;;;12.07;8.77;;;7.00;99.90;;;;;;5072861;28;20440;-83
2024/03/20 02:40:46;;;;;;;12.60;8.30;;;7.00;99.90;;;;;;5072733;28;20487;-82
2024/03/20 02:43:31;;;;;;;10.60;8.23;;;7.10;99.90;;;;;;5070084;28;20431;-84
2024/03/20 02:46:17;;;;;;;11.23;8.70;;;7.10;99.90;;;;;;5070097;28;20452;-82
2024/03/20 02:49:03;;;;;;;10.20;7.80;;;7.10;99.90;;;;;;5072408;28;20777;-83
2024/03/20 02:51:49;;;;;;;11.60;8.00;;;7.00;99.90;;;;;;5074640;28;20429;-83
2024/03/20 02:54:36;;;;;;;11.57;7.93;;;7.10;99.90;;;;;;5069631;28;20503;-82
2024/03/20 02:57:22;;;;;;;9.03;7.37;;;7.10;99.90;;;;;;5069760;28;20488;-83
2024/03/20 03:00:10;;;;;;;10.90;8.60;;;7.10;99.90;;;;;;5070016;28;20440;-81
2024/03/20 03:02:56;;;;;;;13.27;8.03;;;7.10;99.90;;;;;;5063339;28;20506;-84
2024/03/20 03:05:42;;;;;;;9.80;7.73;;;7.10;99.90;;;;;;5065352;28;20479;-83
2024/03/20 03:08:28;;;;;;;9.97;8.40;;;7.00;99.90;;;;;;5065950;28;20987;-82
2024/03/20 03:11:15;;;;;;;10.63;7.40;;;7.00;99.90;;;;;;5069528;28;20961;-82
2024/03/20 03:14:01;;;;;;;13.53;8.80;;;7.00;99.90;;;;;;5064535;28;20479;-84
2024/03/20 03:16:46;;;;;;;9.80;7.70;;;7.00;99.90;;;;;;5067235;28;20510;-84
2024/03/20 03:19:32;;;;;;;9.23;7.47;;;6.90;99.90;;;;;;5064630;28;20462;-83
2024/03/20 03:22:20;;;;;;;9.30;7.37;;;6.90;99.90;;;;;;5066084;28;20481;-82
2024/03/20 03:25:07;;;;;;;9.20;7.10;;;7.10;99.90;;;;;;5068024;28;20686;-83
2024/03/20 03:27:54;;;;;;;11.97;8.13;;;7.10;99.90;;;;;;5063433;28;20592;-82
2024/03/20 03:30:39;;;;;;;8.80;7.60;;;7.10;99.90;;;;;;5062621;28;20542;-84
2024/03/20 03:33:26;;;;;;;14.80;8.30;;;7.10;99.90;;;;;;5065241;28;20449;-82
2024/03/20 03:36:12;;;;;;;11.33;7.73;;;7.10;99.90;;;;;;5064647;28;20472;-83
2024/03/20 03:38:57;;;;;;;10.60;7.53;;;7.10;99.90;;;;;;5063019;28;20500;-83
2024/03/20 03:41:43;;;;;;;11.77;8.60;;;7.00;99.90;;;;;;5065197;28;20576;-83
2024/03/20 03:44:30;;;;;;;9.10;7.70;;;7.00;99.90;;;;;;5068444;28;20476;-81
2024/03/20 03:47:16;;;;;;;9.25;7.90;;;7.00;99.90;;;;;;5065043;28;20554;-82
2024/03/20 03:50:03;;;;;;;9.20;7.20;;;7.00;99.90;;;;;;5066231;28;20219;-84
2024/03/20 03:52:49;;;;;;;10.03;7.30;;;7.00;99.90;;;;;;5065566;28;20465;-84
2024/03/20 03:55:35;;;;;;;10.03;8.10;;;6.90;99.90;;;;;;5068656;28;20483;-82
2024/03/20 03:58:20;;;;;;;12.30;8.37;;;6.80;99.90;;;;;;5063601;28;20457;-83
2024/03/20 04:01:08;;;;;;;10.67;7.90;;;6.80;99.90;;;;;;5066701;28;20612;-83
2024/03/20 04:03:53;;;;;;;13.60;8.43;;;6.80;99.90;;;;;;5066119;28;20533;-82
2024/03/20 04:06:39;;;;;;;8.93;7.00;;;6.80;99.90;;;;;;5068964;28;20549;-82
2024/03/20 04:09:25;;;;;;;9.50;7.57;;;6.80;99.90;;;;;;5070559;28;20467;-81
2024/03/20 04:12:12;;;;;;;10.80;7.43;;;6.90;99.90;;;;;;5068916;28;20524;-81
2024/03/20 04:14:58;;;;;;;10.60;7.10;;;7.00;99.90;;;;;;5066641;28;20488;-82
2024/03/20 04:17:45;;;;;;;10.93;8.10;;;6.90;99.90;;;;;;5070955;28;20448;-82
2024/03/20 04:20:31;;;;;;;9.30;6.70;;;6.90;99.90;;;;;;5069873;28;20444;-83
2024/03/20 04:23:17;;;;;;;9.97;7.00;;;7.00;99.90;;;;;;5068640;28;20829;-83
2024/03/20 04:26:03;;;;;;;11.33;7.60;;;6.90;99.90;;;;;;5076997;28;20482;-80
2024/03/20 04:28:49;;;;;;;11.00;7.83;;;6.90;99.90;;;;;;5077637;28;20458;-83
2024/03/20 04:31:35;;;;;;;15.27;7.07;;;6.80;99.90;;;;;;5067689;28;20445;-83
2024/03/20 04:34:22;;;;;;;8.60;6.90;;;6.90;99.90;;;;;;5068529;28;20830;-81
2024/03/20 04:37:08;;;;;;;12.45;6.97;;;6.80;99.90;;;;;;5070606;28;20919;-83
2024/03/20 04:39:53;;;;;;;11.50;7.20;;;6.80;99.90;;;;;;5070318;28;20693;-82
2024/03/20 04:42:39;;;;;;;7.17;6.27;;;6.70;99.90;;;;;;5072797;28;20524;-83
2024/03/20 04:45:25;;;;;;;10.70;8.10;;;6.60;99.90;;;;;;5069778;28;20463;-82
2024/03/20 04:48:10;;;;;;;8.50;6.82;;;6.60;99.90;;;;;;5066055;28;20425;-81
2024/03/20 04:50:57;;;;;;;8.20;7.13;;;6.70;99.90;;;;;;5065574;28;20208;-83
2024/03/20 04:53:43;;;;;;;26.60;7.97;;;6.70;99.90;;;;;;5070919;28;20452;-82
2024/03/20 04:56:28;;;;;;;11.67;7.23;;;6.80;99.90;;;;;;5065147;28;20594;-82
2024/03/20 04:59:14;;;;;;;9.10;6.30;;;6.70;99.90;;;;;;5066589;28;21106;-83
2024/03/20 05:02:00;;;;;;;13.60;7.32;;;6.60;99.90;;;;;;5063461;28;20484;-83
2024/03/20 05:04:46;;;;;;;8.77;6.55;;;6.40;99.90;;;;;;5071176;28;20805;-83
2024/03/20 05:07:33;;;;;;;10.40;7.00;;;6.30;99.90;;;;;;5069159;28;20210;-81
2024/03/20 05:10:19;;;;;;;9.13;6.78;;;6.30;99.90;;;;;;5070630;28;20487;-82
2024/03/20 05:13:05;;;;;;;9.52;6.95;;;6.20;99.90;;;;;;5069943;28;20264;-82
2024/03/20 05:15:51;;;;;;;7.07;5.90;;;6.30;99.90;;;;;;5072615;28;20245;-82
2024/03/20 05:18:36;;;;;;;9.13;6.53;;;6.30;99.90;;;;;;5068152;28;20480;-81
2024/03/20 05:21:22;;;;;;;8.23;6.13;;;6.30;99.90;;;;;;5071289;28;20582;-82
2024/03/20 05:24:08;;;;;;;8.63;6.97;;;6.40;99.90;;;;;;5072195;28;20514;-80
2024/03/20 05:26:53;;;;;;;8.37;6.67;;;6.30;99.90;;;;;;5072559;28;20467;-82
2024/03/20 05:29:38;;;;;;;8.77;6.50;;;6.30;99.90;;;;;;5070167;28;20444;-81
2024/03/20 05:32:24;;;;;;;7.93;6.18;;;6.30;99.90;;;;;;5064936;28;20815;-81
2024/03/20 05:35:09;;;;;;;9.20;6.80;;;6.30;99.90;;;;;;5066383;28;20247;-81
2024/03/20 05:37:54;;;;;;;9.32;6.43;;;6.30;99.90;;;;;;5065514;28;20473;-81
2024/03/20 05:40:40;;;;;;;10.63;6.27;;;6.30;99.90;;;;;;5068516;28;20341;-81
2024/03/20 05:43:26;;;;;;;9.20;6.97;;;6.30;99.90;;;;;;5065782;28;21044;-81
2024/03/20 05:46:10;;;;;;;6.47;5.68;;;6.30;99.90;;;;;;5065733;28;20275;-82
2024/03/20 05:48:58;;;;;;;8.27;6.40;;;6.30;99.90;;;;;;5065436;28;20733;-83
2024/03/20 05:51:42;;;;;;;8.17;6.70;;;6.30;99.90;;;;;;5066833;28;20283;-84
2024/03/20 05:54:28;;;;;;;8.37;6.97;;;6.20;99.90;;;;;;5068427;28;20840;-81
2024/03/20 05:57:14;;;;;;;7.93;6.10;;;6.20;99.90;;;;;;5069843;28;20497;-81
2024/03/20 06:00:00;;;;;;;8.17;6.03;;;6.20;99.90;;;;;;5079053;28;21157;-80
2024/03/20 06:02:45;;;;;;;7.18;5.88;;;6.20;99.90;;;;;;5075889;28;20498;-84
2024/03/20 06:05:31;;;;;;;14.00;5.80;;;6.30;99.90;;;;;;5072172;28;20245;-81
2024/03/20 06:08:17;;;;;;;8.88;6.38;;;6.40;99.90;;;;;;5073113;28;20453;-81
2024/03/20 06:11:01;;;;;;;8.70;6.97;;;6.50;99.90;;;;;;5071456;28;20214;-81
2024/03/20 06:13:48;;;;;;;8.60;5.83;;;6.60;99.90;;;;;;5070526;28;20200;-84
2024/03/20 06:16:33;;;;;;;5.83;5.03;;;6.70;99.90;;;;;;5072648;28;20435;-85
2024/03/20 06:19:19;;;;;;;8.20;5.93;;;6.80;99.90;;;;;;5071122;28;20437;-83
2024/03/20 06:22:04;;;;;;;13.63;6.50;;;6.90;99.90;;;;;;5068564;28;20490;-81
2024/03/20 06:24:50;;;;;;;8.70;6.60;;;6.90;99.90;;;;;;5073688;28;20229;-81
2024/03/20 06:27:35;;;;;;;8.30;6.23;;;6.90;99.90;;;;;;5069772;28;20449;-82
2024/03/20 06:30:25;;;;;;;8.93;6.93;;;7.00;99.90;;;;;;5071330;28;20925;-82
2024/03/20 06:33:10;;;;;;;8.90;7.00;;;7.10;99.90;;;;;;5074496;28;20441;-83
2024/03/20 06:35:55;;;;;;;8.67;6.87;;;7.30;99.90;;;;;;5073037;28;20543;-81
2024/03/20 06:38:40;;;;;;;10.20;6.23;;;7.30;99.90;;;;;;5068235;28;20452;-84
2024/03/20 06:41:25;;;;;;;9.20;8.30;;;7.40;99.90;;;;;;5072315;28;20467;-79
2024/03/20 06:44:14;;;;;;;13.63;8.40;;;7.40;99.90;;;;;;5068245;28;20503;-82
2024/03/20 06:47:00;;;;;;;11.18;7.50;;;7.50;99.90;;;;;;5070566;28;20278;-82
2024/03/20 06:49:47;;;;;;;9.33;7.43;;;7.60;99.90;;;;;;5068217;28;20746;-81
2024/03/20 06:52:38;;;;;;;10.97;8.17;;;7.70;99.90;;;;;;5067702;28;20507;-80
2024/03/20 06:55:25;;;;;;;12.63;8.67;;;7.80;99.90;;;;;;5068298;28;20477;-81
2024/03/20 06:58:11;;;;;;;13.20;8.00;;;7.80;99.90;;;;;;5069709;28;20440;-82
2024/03/20 07:00:56;;;;;;;12.60;8.30;;;7.90;99.90;;;;;;5080883;28;20456;-81
2024/03/20 07:03:43;;;;;;;10.20;8.47;;;8.00;99.90;;;;;;5082508;28;20980;-83
2024/03/20 07:06:28;;;;;;;10.80;8.27;;;8.10;99.90;;;;;;5072071;28;20448;-83
2024/03/20 07:09:13;;;;;;;17.50;8.10;;;8.20;99.90;;;;;;5068420;28;20440;-82
2024/03/20 07:11:59;;;;;;;9.27;7.40;;;8.30;99.90;;;;;;5072494;28;20904;-82
2024/03/20 07:14:44;;;;;;;10.63;9.20;;;8.40;99.90;;;;;;5068236;28;20519;-82
2024/03/20 07:17:30;;;;;;;12.73;9.43;;;8.50;99.90;;;;;;5069190;28;21102;-81
2024/03/20 07:20:17;;;;;;;12.00;9.13;;;8.70;99.90;;;;;;5069866;28;20453;-81
2024/03/20 07:23:01;;;;;;;17.80;8.63;;;8.80;99.90;;;;;;5069395;28;20474;-82
2024/03/20 07:25:48;;;;;;;13.70;8.33;;;8.90;99.90;;;;;;5073550;28;20485;-83
2024/03/20 07:28:33;;;;;;;10.73;8.60;;;8.90;99.90;;;;;;5073423;28;20450;-81
2024/03/20 07:31:19;;;;;;;10.80;7.50;;;9.00;99.90;;;;;;5070870;28;20433;-82
2024/03/20 07:34:03;;;;;;;16.90;8.33;;;9.10;99.90;;;;;;5071949;28;20664;-82
2024/03/20 07:36:51;;;;;;;12.43;7.40;;;9.10;99.90;;;;;;5072080;28;20426;-82
2024/03/20 07:39:36;;;;;;;17.30;9.13;;;9.20;99.90;;;;;;5072975;28;20552;-83
2024/03/20 07:42:21;;;;;;;14.03;8.87;;;9.30;99.90;;;;;;5064848;28;20478;-82
2024/03/20 07:45:08;;;;;;;10.40;7.03;;;9.40;99.90;;;;;;5066602;28;20570;-80
2024/03/20 07:47:52;;;;;;;10.07;7.60;;;9.50;99.90;;;;;;5070659;28;20432;-82
2024/03/20 07:50:38;;;;;;;10.13;7.33;;;9.70;99.90;;;;;;5071135;28;20399;-82
2024/03/20 07:53:24;;;;;;;9.93;6.83;;;9.70;99.90;;;;;;5069991;28;20407;-83
2024/03/20 07:56:10;;;;;;;9.37;7.93;;;9.90;99.90;;;;;;5071204;28;20493;-81
2024/03/20 07:58:55;;;;;;;11.73;6.57;;;10.00;99.90;;;;;;5072295;28;20456;-82
2024/03/20 08:01:41;;;;;;;9.37;7.20;;;10.20;99.90;;;;;;5067094;28;20462;-83
2024/03/20 08:04:25;;;;;;;9.33;7.20;;;10.40;99.90;;;;;;5069322;28;20481;-83
2024/03/20 08:07:11;;;;;;;8.50;6.13;;;10.60;99.90;;;;;;5065544;28;20469;-81
2024/03/20 08:09:57;;;;;;;10.07;5.90;;;10.80;99.90;;;;;;5063907;28;20476;-81
2024/03/20 08:12:43;;;;;;;13.43;6.80;;;10.90;99.90;;;;;;5064888;28;20445;-82
2024/03/20 08:15:27;;;;;;;7.90;6.60;;;11.10;99.90;;;;;;5064586;28;20474;-81
2024/03/20 08:18:13;;;;;;;6.93;6.20;;;11.20;99.90;;;;;;5063923;28;20523;-82
2024/03/20 08:20:58;;;;;;;15.40;6.40;;;11.30;99.90;;;;;;5065170;28;20445;-82
2024/03/20 08:23:43;;;;;;;8.03;5.83;;;11.40;99.90;;;;;;5065242;28;20469;-81
2024/03/20 08:26:30;;;;;;;14.37;6.33;;;11.50;99.90;;;;;;5071077;28;20442;-82
2024/03/20 08:29:15;;;;;;;9.43;5.83;;;11.60;99.90;;;;;;5069379;28;20454;-82
2024/03/20 08:32:00;;;;;;;7.83;5.33;;;11.80;99.90;;;;;;5069565;28;20446;-83
2024/03/20 08:34:46;;;;;;;8.17;5.10;;;11.90;99.90;;;;;;5069243;28;20465;-81
2024/03/20 08:37:31;;;;;;;7.70;5.67;;;12.10;99.90;;;;;;5066770;28;20465;-82
2024/03/20 08:40:17;;;;;;;7.53;4.97;;;12.20;99.90;;;;;;5066520;28;20454;-81
2024/03/20 08:43:04;;;;;;;8.10;5.50;;;12.40;99.90;;;;;;5068123;28;20554;-81
2024/03/20 08:45:50;;;;;;;12.83;5.60;;;12.50;99.90;;;;;;5067510;28;21002;-82
2024/03/20 08:48:34;;;;;;;8.60;4.63;;;12.60;99.90;;;;;;5068061;28;20576;-81
2024/03/20 08:51:20;;;;;;;9.33;4.83;;;12.70;99.90;;;;;;5067424;28;20449;-82
2024/03/20 08:54:05;;;;;;;7.60;4.57;;;12.90;99.90;;;;;;5063692;28;20504;-82
2024/03/20 08:56:50;;;;;;;8.70;4.63;;;13.10;99.90;;;;;;5069147;28;21375;-83
2024/03/20 08:59:37;;;;;;;9.40;5.20;;;13.30;99.90;;;;;;5066561;28;20819;-82
2024/03/20 09:02:23;;;;;;;10.43;5.00;;;13.40;99.90;;;;;;5066870;28;20472;-83
2024/03/20 09:05:08;;;;;;;6.60;4.73;;;13.60;99.90;;;;;;5069756;28;20470;-81
2024/03/20 09:07:54;;;;;;;6.47;4.93;;;13.70;99.90;;;;;;5066716;28;20442;-82
2024/03/20 09:10:38;;;;;;;6.00;4.10;;;13.80;99.90;;;;;;5068919;28;20438;-82
2024/03/20 09:13:26;;;;;;;6.30;4.60;;;14.00;99.90;;;;;;5063208;28;20970;-81
2024/03/20 09:16:12;;;;;;;12.47;4.83;;;14.10;99.90;;;;;;5065114;28;20452;-83
2024/03/20 09:18:58;;;;;;;5.23;3.97;;;14.20;99.90;;;;;;5068540;28;20508;-81
2024/03/20 09:21:44;;;;;;;4.70;3.70;;;14.40;99.90;;;;;;5064057;28;20548;-81
2024/03/20 09:24:29;;;;;;;6.13;3.43;;;14.60;99.90;;;;;;5069371;28;20853;-80
2024/03/20 09:27:14;;;;;;;4.70;2.87;;;14.70;99.90;;;;;;5063393;28;20847;-81
2024/03/20 09:30:00;;;;;;;7.27;4.43;;;14.80;99.90;;;;;;5070522;28;20450;-81
2024/03/20 09:32:46;;;;;;;7.37;3.60;;;14.80;99.90;;;;;;5068323;28;20434;-82
2024/03/20 09:35:32;;;;;;;11.30;4.30;;;15.00;99.90;;;;;;5071997;28;20551;-80
2024/03/20 09:38:16;;;;;;;8.67;3.60;;;15.10;99.90;;;;;;5081803;28;20416;-83
2024/03/20 09:41:02;;;;;;;7.57;3.03;;;15.30;99.90;;;;;;5070186;28;20421;-82
2024/03/20 09:43:47;;;;;;;8.03;3.50;;;15.50;99.90;;;;;;5068719;28;20609;-83
2024/03/20 09:46:33;;;;;;;5.47;3.27;;;15.60;99.90;;;;;;5068120;28;20433;-83
2024/03/20 09:49:20;;;;;;;7.53;3.13;;;15.80;99.90;;;;;;5066105;28;20424;-82
2024/03/20 09:52:07;;;;;;;5.17;2.83;;;15.90;95.90;;;;;;5067647;28;20942;-82
2024/03/20 09:54:53;;;;;;;3.80;2.33;;;16.00;95.80;;;;;;5065379;28;20470;-83
2024/03/20 09:57:42;;;;;;;6.27;2.80;;;16.00;96.30;;;;;;5068484;28;20569;-81
2024/03/20 10:00:27;;;;;;;4.57;2.80;;;16.10;96.80;;;;;;5070650;28;20505;-82
2024/03/20 10:03:14;;;;;;;4.47;2.53;;;16.20;96.80;;;;;;5069215;28;20499;-81
2024/03/20 10:06:00;;;;;;;6.23;2.73;;;16.40;94.90;;;;;;5071408;28;20560;-83
2024/03/20 10:08:46;;;;;;;8.50;3.23;;;16.50;94.70;;;;;;5067485;28;20884;-82
2024/03/20 10:11:31;;;;;;;5.03;2.30;;;16.50;95.90;;;;;;5073826;28;20498;-82
2024/03/20 10:14:16;;;;;;;4.33;3.10;;;16.60;97.70;;;;;;5074377;28;20445;-82
2024/03/20 10:17:11;;;;;;;5.93;3.53;;;16.80;96.80;;;;;;5068911;28;20924;-82
2024/03/20 10:19:56;;;;;;;7.07;3.50;;;16.80;96.60;;;;;;5069572;28;20425;-81
2024/03/20 10:22:43;;;;;;;4.40;2.67;;;16.90;96.70;;;;;;5072061;28;20465;-82
2024/03/20 10:25:28;;;;;;;6.43;2.83;;;17.00;96.10;;;;;;5067554;28;20466;-83
2024/03/20 10:28:16;;;;;;;5.43;3.00;;;17.10;95.10;;;;;;5068701;28;20447;-82
2024/03/20 10:31:03;;;;;;;6.70;3.03;;;17.20;85.50;;;;;;5070268;28;20480;-83
2024/03/20 10:33:51;;;;;;;8.00;4.30;;;17.20;79.50;;;;;;5066933;28;20454;-81
2024/03/20 10:36:36;;;;;;;4.10;3.03;;;17.30;83.90;;;;;;5069257;28;20800;-82
2024/03/20 10:39:27;;;;;;;4.83;2.90;;;17.40;86.60;;;;;;5068065;28;20424;-82
2024/03/20 10:42:13;;;;;;;4.63;2.60;;;17.50;84.20;;;;;;5071811;28;20453;-81
2024/03/20 10:44:59;;;;;;;2.90;2.30;;;17.50;75.30;;;;;;5064390;28;20498;-82
2024/03/20 10:47:45;;;;;;;4.10;2.53;;;17.60;68.30;;;;;;5069022;28;20435;-82
2024/03/20 10:50:32;;;;;;;5.40;3.40;;;17.50;64.30;;;;;;5067652;28;20436;-80
2024/03/20 10:53:17;;;;;;;4.50;2.83;;;17.70;72.10;;;;;;5069263;28;20430;-81
2024/03/20 10:56:06;;;;;;;5.70;4.10;;;17.70;70.10;;;;;;5067983;28;20482;-82
2024/03/20 10:59:00;;;;;;;8.43;3.90;;;17.80;71.30;;;;;;5070175;28;20490;-82
2024/03/20 11:01:56;;;;;;;5.60;3.80;;;17.90;66.40;;;;;;5069172;28;20497;-82
2024/03/20 11:04:42;;;;;;;5.63;3.30;;;17.90;68.50;;;;;;5069396;28;20546;-83
2024/03/20 11:07:35;;;;;;;4.00;3.17;;;17.90;63.20;;;;;;5072323;28;20509;-82
2024/03/20 11:10:22;;;;;;;6.67;3.67;;;17.90;65.00;;;;;;5073397;28;20498;-85
2024/03/20 11:13:21;;;;;;;7.33;4.20;;;18.00;66.00;;;;;;5073121;28;20415;-82
2024/03/20 11:16:06;;;;;;;9.30;4.73;;;18.20;68.30;;;;;;5074792;28;20535;-82
2024/03/20 11:18:54;;;;;;;8.77;4.60;;;18.30;70.10;;;;;;5071361;28;20403;-82
2024/03/20 11:21:39;;;;;;;5.20;3.67;;;18.40;68.10;;;;;;5073327;28;20548;-82
2024/03/20 11:24:24;;;;;;;6.10;3.90;;;18.40;67.10;;;;;;5074664;28;20624;-82
2024/03/20 11:27:09;;;;;;;5.27;4.17;;;18.50;68.20;;;;;;5069297;28;20990;-83
2024/03/20 11:29:56;;;;;;;12.90;4.97;;;18.50;68.60;;;;;;5072169;28;20399;-82
2024/03/20 11:32:41;;;;;;;6.40;4.07;;;18.60;66.30;;;;;;5070353;28;20508;-83
2024/03/20 11:35:27;;;;;;;5.90;3.80;;;18.60;62.80;;;;;;5071208;28;20445;-82
2024/03/20 11:38:13;;;;;;;5.33;3.67;;;18.70;63.70;;;;;;5073154;28;20440;-81
2024/03/20 11:41:00;;;;;;;4.90;4.00;;;18.70;58.00;;;;;;5069001;28;20579;-80
2024/03/20 11:43:47;;;;;;;7.50;4.57;;;18.70;58.20;;;;;;5072937;28;20528;-82
2024/03/20 11:46:33;;;;;;;5.90;4.03;;;18.70;58.60;;;;;;5072152;28;20436;-82
2024/03/20 11:49:19;;;;;;;8.50;4.50;;;18.80;60.00;;;;;;5071113;28;20440;-82
2024/03/20 11:52:07;;;;;;;5.90;3.73;;;18.80;52.80;;;;;;5071530;28;20404;-83
2024/03/20 11:54:53;;;;;;;7.63;3.60;;;18.80;52.00;;;;;;5069812;28;20445;-82
2024/03/20 11:57:40;;;;;;;7.00;3.30;;;18.80;53.20;;;;;;5071871;28;20807;-81
2024/03/20 12:00:26;;;;;;;5.13;3.50;;;18.90;48.80;;;;;;5068996;28;20403;-80
2024/03/20 12:03:23;;;;;;;6.97;4.07;;;19.00;46.80;;;;;;5067162;28;20989;-81
2024/03/20 12:06:09;;;;;;;7.40;4.90;;;19.00;48.10;;;;;;5069282;28;20453;-81
2024/03/20 12:08:55;;;;;;;5.63;4.30;;;19.10;47.80;;;;;;5070802;28;20499;-81
2024/03/20 12:11:40;;;;;;;6.47;4.57;;;19.30;50.60;;;;;;5076662;28;20445;-80
2024/03/20 12:14:25;;;;;;;6.67;4.23;;;19.40;48.70;;;;;;5081734;28;20604;-81
2024/03/20 12:17:12;;;;;;;6.20;4.57;;;19.60;50.90;;;;;;5075115;28;20468;-81
2024/03/20 12:19:58;;;;;;;7.20;4.90;;;19.60;44.40;;;;;;5073689;28;20505;-81
2024/03/20 12:22:45;;;;;;;7.00;4.53;;;19.70;46.20;;;;;;5071948;28;20535;-82
2024/03/20 12:25:29;;;;;;;8.07;5.23;;;19.80;46.70;;;;;;5072323;28;20452;-82
2024/03/20 12:28:15;;;;;;;8.87;4.57;;;19.80;47.50;;;;;;5071924;28;20472;-82
2024/03/20 12:31:00;;;;;;;8.80;4.23;;;19.70;43.20;;;;;;5071705;28;20816;-81
2024/03/20 12:33:49;;;;;;;9.27;5.20;;;19.80;46.30;;;;;;5071447;28;20416;-81
2024/03/20 12:36:36;;;;;;;8.20;4.33;;;20.00;41.00;;;;;;5070318;28;20439;-82
2024/03/20 12:39:21;;;;;;;7.17;3.83;;;20.10;36.20;;;;;;5071748;28;20441;-82
2024/03/20 12:42:07;;;;;;;6.13;4.03;;;20.20;37.40;;;;;;5065078;28;20453;-83
2024/03/20 12:44:53;;;;;;;4.90;3.60;;;20.30;27.20;;;;;;5069776;28;20503;-82
2024/03/20 12:47:37;;;;;;;5.50;3.33;;;20.10;26.60;;;;;;5067377;28;20820;-82
2024/03/20 12:50:23;;;;;;;3.77;2.97;;;20.20;28.40;;;;;;5070214;28;20462;-81
2024/03/20 12:53:15;;;;;;;4.60;3.17;;;20.10;26.50;;;;;;5070796;28;20419;-82
2024/03/20 12:56:01;;;;;;;3.67;2.77;;;20.30;26.70;;;;;;5071539;28;20464;-82
2024/03/20 12:58:46;;;;;;;6.63;3.43;;;20.40;24.60;;;;;;5067871;28;20436;-81
2024/03/20 13:01:32;;;;;;;5.63;3.10;;;20.40;26.80;;;;;;5067661;28;20514;-82
2024/03/20 13:04:17;;;;;;;5.80;2.70;;;20.50;25.40;;;;;;5067130;28;20918;-82
2024/03/20 13:07:03;;;;;;;6.20;2.57;;;20.60;26.90;;;;;;5068434;28;20469;-81
2024/03/20 13:09:50;;;;;;;3.40;2.20;;;20.60;23.80;;;;;;5066051;28;20508;-80
2024/03/20 13:12:36;;;;;;;5.40;2.50;;;20.60;22.60;;;;;;5066161;28;21074;-81
2024/03/20 13:15:22;;;;;;;2.97;1.93;;;20.60;22.30;;;;;;5068764;28;20456;-81
2024/03/20 13:18:32;;;;;;;4.00;1.80;;;20.70;22.50;;;;;;5068571;28;20433;-80
2024/03/20 13:21:24;;;;;;;3.97;1.90;;;20.90;21.50;;;;;;5068285;28;20424;-82
2024/03/20 13:24:11;;;;;;;3.87;2.60;;;20.90;19.50;;;;;;5070650;28;20467;-82
2024/03/20 13:26:59;;;;;;;5.90;3.33;;;20.90;22.60;;;;;;5073014;28;20474;-84
2024/03/20 13:29:46;;;;;;;4.90;3.03;;;21.00;18.90;;;;;;5072207;28;20399;-83
2024/03/20 13:32:34;;;;;;;7.47;2.77;;;21.20;19.30;;;;;;5070325;28;20433;-82
2024/03/20 13:35:19;;;;;;;3.80;2.73;;;21.20;17.80;;;;;;5063117;28;20440;-84
2024/03/20 13:38:08;;;;;;;3.90;2.57;;;21.20;18.90;;;;;;5067291;28;20457;-83
2024/03/20 13:41:01;;;;;;;4.97;2.50;;;21.20;18.10;;;;;;5058957;28;20433;-83
2024/03/20 13:44:05;;;;;;;4.53;2.60;;;21.20;19.70;;;;;;5064197;28;20973;-83
2024/03/20 13:46:50;;;;;;;4.20;2.10;;;21.10;18.50;;;;;;5062797;28;20805;-82
2024/03/20 13:49:36;;;;;;;6.07;2.00;;;21.00;18.30;;;;;;5063326;28;20485;-82
2024/03/20 13:52:21;;;;;;;6.73;1.80;;;21.00;18.80;;;;;;5064362;28;20977;-83
2024/03/20 13:55:12;;;;;;;7.60;2.00;;;20.90;18.10;;;;;;5070935;28;20502;-83
2024/03/20 13:57:56;;;;;;;2.93;1.60;;;20.90;17.40;;;;;;5067688;28;21024;-83
2024/03/20 14:00:43;;;;;;;2.63;1.60;;;20.80;18.10;;;;;;5067124;28;20484;-82
2024/03/20 14:03:28;;;;;;;5.87;2.90;;;20.80;18.50;;;;;;5071431;28;20532;-82
2024/03/20 14:06:15;;;;;;;6.57;3.13;;;20.70;19.10;;;;;;5072347;28;20592;-83
2024/03/20 14:09:00;;;;;;;4.13;2.60;;;20.40;18.70;;;;;;5072932;28;20520;-81
2024/03/20 14:11:46;;;;;;;4.33;2.70;;;20.40;19.80;;;;;;5069958;28;20434;-81
2024/03/20 14:14:31;;;;;;;4.27;2.80;;;20.30;20.70;;;;;;5074123;28;20476;-83
2024/03/20 14:17:20;;;;;;;4.07;2.20;;;20.30;21.60;;;;;;5074573;28;21054;-82
2024/03/20 14:20:10;;;;;;;3.80;2.40;;;20.30;21.70;;;;;;5074689;28;20860;-81
2024/03/20 14:22:56;;;;;;;2.70;1.80;;;20.50;21.10;;;;;;5073180;28;20937;-82
2024/03/20 14:25:41;;;;;;;4.10;2.10;;;20.70;19.90;;;;;;5073009;28;20457;-83
2024/03/20 14:28:27;;;;;;;4.80;2.00;;;20.80;18.00;;;;;;5076191;28;20480;-83